OMAL/AAN METAR and TAF weather

Enter ICAO airport designator
Station Type Date Time Source
OMAL METAR 2019/08/24 18:00 UTC NOAA

OMAL 241800Z 05005KT 010V080 CAVOK 37/15 Q1005 NOSIG


Station Type Date Time Source
OMAL Decoded METAR 2019/08/24 18:00 UTC NOAA

Station name not available
Aug 24, 2019 - 02:00 PM EDT / 2019.08.24 1800 UTC
Wind: from the NE (050 degrees) at 6 MPH (5 KT) (direction variable):0
Visibility: greater than 7 mile(s):0
Temperature: 98 F (37 C)
Heat index: 97.5 F (36.4 C):1
Dew Point: 59 F (15 C)
Relative Humidity: 27%
Pressure (altimeter): 29.68 in. Hg (1005 hPa)
ob: OMAL 241800Z 05005KT 010V080 CAVOK 37/15 Q1005 NOSIG
cycle: 18

Station Type Date Time Source
OMAL TAF 2019/08/24 18:01 UTC NOAA

TAF OMAL 241700Z 2418/2600 07006KT 8000 NSC
BECMG 2500/2502 15012KT
BECMG 2509/2511 31014KT PROB30
TEMPO 2512/2515 4000 DU FEW045TCU
BECMG 2517/2518 06005KT

Example: see airport list